sensor_id;sensor_type;location;lat;lon;timestamp;temperature;humidity
15556;DHT22;7879;48.660;9.116;2022-10-22T00:02:20;12.80;99.90
15556;DHT22;7879;48.660;9.116;2022-10-22T00:04:48;12.80;99.90
15556;DHT22;7879;48.660;9.116;2022-10-22T00:07:16;12.70;99.90
15556;DHT22;7879;48.660;9.116;2022-10-22T00:09:43;12.70;99.90
15556;DHT22;7879;48.660;9.116;2022-10-22T00:12:10;12.70;99.90
15556;DHT22;7879;48.660;9.116;2022-10-22T00:14:37;12.70;99.90
15556;DHT22;7879;48.660;9.116;2022-10-22T00:17:04;12.70;99.90
15556;DHT22;7879;48.660;9.116;2022-10-22T00:19:36;12.70;99.90
15556;DHT22;7879;48.660;9.116;2022-10-22T00:22:03;12.70;99.90
15556;DHT22;7879;48.660;9.116;2022-10-22T00:24:34;12.70;99.90
15556;DHT22;7879;48.660;9.116;2022-10-22T00:27:01;12.70;99.90
15556;DHT22;7879;48.660;9.116;2022-10-22T00:29:28;12.70;99.90
15556;DHT22;7879;48.660;9.116;2022-10-22T00:31:55;12.70;99.90
15556;DHT22;7879;48.660;9.116;2022-10-22T00:34:27;12.60;99.90
15556;DHT22;7879;48.660;9.116;2022-10-22T00:36:54;12.70;99.90
15556;DHT22;7879;48.660;9.116;2022-10-22T00:39:23;12.60;99.90
15556;DHT22;7879;48.660;9.116;2022-10-22T00:41:51;12.60;99.90
15556;DHT22;7879;48.660;9.116;2022-10-22T00:47:47;12.60;99.90
15556;DHT22;7879;48.660;9.116;2022-10-22T00:52:49;12.60;99.90
15556;DHT22;7879;48.660;9.116;2022-10-22T00:55:17;12.60;99.90
15556;DHT22;7879;48.660;9.116;2022-10-22T00:57:45;12.60;99.90
15556;DHT22;7879;48.660;9.116;2022-10-22T01:00:12;12.60;99.90
15556;DHT22;7879;48.660;9.116;2022-10-22T01:02:39;12.60;99.90
15556;DHT22;7879;48.660;9.116;2022-10-22T01:05:07;12.60;99.90
15556;DHT22;7879;48.660;9.116;2022-10-22T01:07:38;12.60;99.90
15556;DHT22;7879;48.660;9.116;2022-10-22T01:16:10;12.50;99.90
15556;DHT22;7879;48.660;9.116;2022-10-22T01:21:57;12.50;99.90
15556;DHT22;7879;48.660;9.116;2022-10-22T01:24:34;12.50;99.90
15556;DHT22;7879;48.660;9.116;2022-10-22T01:27:11;12.40;99.90
15556;DHT22;7879;48.660;9.116;2022-10-22T01:29:49;12.50;99.90
15556;DHT22;7879;48.660;9.116;2022-10-22T01:32:21;12.40;99.90
15556;DHT22;7879;48.660;9.116;2022-10-22T01:34:53;12.40;99.90
15556;DHT22;7879;48.660;9.116;2022-10-22T01:37:23;12.40;99.90
15556;DHT22;7879;48.660;9.116;2022-10-22T01:39:52;12.40;99.90
15556;DHT22;7879;48.660;9.116;2022-10-22T01:42:20;12.40;99.90
15556;DHT22;7879;48.660;9.116;2022-10-22T01:44:46;12.40;99.90
15556;DHT22;7879;48.660;9.116;2022-10-22T01:47:30;12.40;99.90
15556;DHT22;7879;48.660;9.116;2022-10-22T01:55:40;12.30;99.90
15556;DHT22;7879;48.660;9.116;2022-10-22T01:58:21;12.30;99.90
15556;DHT22;7879;48.660;9.116;2022-10-22T02:01:03;12.30;99.90
15556;DHT22;7879;48.660;9.116;2022-10-22T02:03:44;12.40;99.90
15556;DHT22;7879;48.660;9.116;2022-10-22T02:06:16;12.30;99.90
15556;DHT22;7879;48.660;9.116;2022-10-22T02:08:45;12.40;99.90
15556;DHT22;7879;48.660;9.116;2022-10-22T02:11:13;12.30;99.90
15556;DHT22;7879;48.660;9.116;2022-10-22T02:13:53;12.30;99.90
15556;DHT22;7879;48.660;9.116;2022-10-22T02:16:33;12.30;99.90
15556;DHT22;7879;48.660;9.116;2022-10-22T02:19:04;12.20;99.90
15556;DHT22;7879;48.660;9.116;2022-10-22T02:21:34;12.20;99.90
15556;DHT22;7879;48.660;9.116;2022-10-22T02:24:01;12.20;99.90
15556;DHT22;7879;48.660;9.116;2022-10-22T02:26:34;12.20;99.90
15556;DHT22;7879;48.660;9.116;2022-10-22T02:29:24;12.20;99.90
15556;DHT22;7879;48.660;9.116;2022-10-22T02:31:55;12.20;99.90
15556;DHT22;7879;48.660;9.116;2022-10-22T02:34:26;12.20;99.90
15556;DHT22;7879;48.660;9.116;2022-10-22T02:36:53;12.20;99.90
15556;DHT22;7879;48.660;9.116;2022-10-22T02:39:21;12.20;99.90
15556;DHT22;7879;48.660;9.116;2022-10-22T02:41:48;12.20;99.90
15556;DHT22;7879;48.660;9.116;2022-10-22T02:44:14;12.20;99.90
15556;DHT22;7879;48.660;9.116;2022-10-22T02:46:42;12.20;99.90
15556;DHT22;7879;48.660;9.116;2022-10-22T02:49:09;12.20;99.90
15556;DHT22;7879;48.660;9.116;2022-10-22T02:51:36;12.20;99.90
15556;DHT22;7879;48.660;9.116;2022-10-22T02:54:03;12.10;99.90
15556;DHT22;7879;48.660;9.116;2022-10-22T02:56:30;12.20;99.90
15556;DHT22;7879;48.660;9.116;2022-10-22T02:58:57;12.20;99.90
15556;DHT22;7879;48.660;9.116;2022-10-22T03:01:23;12.20;99.90
15556;DHT22;7879;48.660;9.116;2022-10-22T03:03:50;12.20;99.90
15556;DHT22;7879;48.660;9.116;2022-10-22T03:06:17;12.10;99.90
15556;DHT22;7879;48.660;9.116;2022-10-22T03:08:44;12.10;99.90
15556;DHT22;7879;48.660;9.116;2022-10-22T03:11:11;12.10;99.90
15556;DHT22;7879;48.660;9.116;2022-10-22T03:13:38;12.10;99.90
15556;DHT22;7879;48.660;9.116;2022-10-22T03:16:05;12.10;99.90
15556;DHT22;7879;48.660;9.116;2022-10-22T03:18:32;12.10;99.90
15556;DHT22;7879;48.660;9.116;2022-10-22T03:21:44;12.10;99.90
15556;DHT22;7879;48.660;9.116;2022-10-22T03:24:16;12.10;99.90
15556;DHT22;7879;48.660;9.116;2022-10-22T03:26:44;12.10;99.90
15556;DHT22;7879;48.660;9.116;2022-10-22T03:29:14;12.10;99.90
15556;DHT22;7879;48.660;9.116;2022-10-22T03:31:41;12.10;99.90
15556;DHT22;7879;48.660;9.116;2022-10-22T03:34:08;12.10;99.90
15556;DHT22;7879;48.660;9.116;2022-10-22T03:36:34;12.10;99.90
15556;DHT22;7879;48.660;9.116;2022-10-22T03:39:03;12.10;99.90
15556;DHT22;7879;48.660;9.116;2022-10-22T03:41:30;12.10;99.90
15556;DHT22;7879;48.660;9.116;2022-10-22T03:43:56;12.10;99.90
15556;DHT22;7879;48.660;9.116;2022-10-22T03:46:25;12.10;99.90
15556;DHT22;7879;48.660;9.116;2022-10-22T03:48:52;12.10;99.90
15556;DHT22;7879;48.660;9.116;2022-10-22T03:51:18;12.00;99.90
15556;DHT22;7879;48.660;9.116;2022-10-22T03:53:45;12.10;99.90
15556;DHT22;7879;48.660;9.116;2022-10-22T03:56:13;12.10;99.90
15556;DHT22;7879;48.660;9.116;2022-10-22T03:58:40;12.00;99.90
15556;DHT22;7879;48.660;9.116;2022-10-22T04:01:09;12.00;99.90
15556;DHT22;7879;48.660;9.116;2022-10-22T04:03:36;12.00;99.90
15556;DHT22;7879;48.660;9.116;2022-10-22T04:06:08;12.00;99.90
15556;DHT22;7879;48.660;9.116;2022-10-22T04:08:37;12.00;99.90
15556;DHT22;7879;48.660;9.116;2022-10-22T04:11:05;11.90;99.90
15556;DHT22;7879;48.660;9.116;2022-10-22T04:13:32;12.00;99.90
15556;DHT22;7879;48.660;9.116;2022-10-22T04:16:10;11.90;99.90
15556;DHT22;7879;48.660;9.116;2022-10-22T04:18:38;11.90;99.90
15556;DHT22;7879;48.660;9.116;2022-10-22T04:21:07;11.90;99.90
15556;DHT22;7879;48.660;9.116;2022-10-22T04:23:34;11.90;99.90
15556;DHT22;7879;48.660;9.116;2022-10-22T04:26:03;11.90;99.90
15556;DHT22;7879;48.660;9.116;2022-10-22T04:28:30;11.80;99.90
15556;DHT22;7879;48.660;9.116;2022-10-22T04:30:57;11.80;99.90
15556;DHT22;7879;48.660;9.116;2022-10-22T04:33:24;11.80;99.90
15556;DHT22;7879;48.660;9.116;2022-10-22T04:35:50;11.80;99.90
15556;DHT22;7879;48.660;9.116;2022-10-22T04:38:17;11.80;99.90
15556;DHT22;7879;48.660;9.116;2022-10-22T04:40:44;11.80;99.90
15556;DHT22;7879;48.660;9.116;2022-10-22T04:43:10;11.70;99.90
15556;DHT22;7879;48.660;9.116;2022-10-22T04:45:37;11.70;99.90
15556;DHT22;7879;48.660;9.116;2022-10-22T04:48:04;11.80;99.90
15556;DHT22;7879;48.660;9.116;2022-10-22T04:50:31;11.80;99.90
15556;DHT22;7879;48.660;9.116;2022-10-22T04:52:57;11.70;99.90
15556;DHT22;7879;48.660;9.116;2022-10-22T04:55:24;11.70;99.90
15556;DHT22;7879;48.660;9.116;2022-10-22T04:57:50;11.70;99.90
15556;DHT22;7879;48.660;9.116;2022-10-22T05:00:17;11.60;99.90
15556;DHT22;7879;48.660;9.116;2022-10-22T05:02:48;11.60;99.90
15556;DHT22;7879;48.660;9.116;2022-10-22T05:05:14;11.70;99.90
15556;DHT22;7879;48.660;9.116;2022-10-22T05:07:41;11.70;99.90
15556;DHT22;7879;48.660;9.116;2022-10-22T05:10:08;11.60;99.90
15556;DHT22;7879;48.660;9.116;2022-10-22T05:12:35;11.60;99.90
15556;DHT22;7879;48.660;9.116;2022-10-22T05:15:02;11.70;99.90
15556;DHT22;7879;48.660;9.116;2022-10-22T05:17:29;11.60;99.90
15556;DHT22;7879;48.660;9.116;2022-10-22T05:19:56;11.60;99.90
15556;DHT22;7879;48.660;9.116;2022-10-22T05:22:22;11.60;99.90
15556;DHT22;7879;48.660;9.116;2022-10-22T05:24:49;11.50;99.90
15556;DHT22;7879;48.660;9.116;2022-10-22T05:27:15;11.50;99.90
15556;DHT22;7879;48.660;9.116;2022-10-22T05:29:42;11.50;99.90
15556;DHT22;7879;48.660;9.116;2022-10-22T05:32:09;11.50;99.90
15556;DHT22;7879;48.660;9.116;2022-10-22T05:34:35;11.40;99.90
15556;DHT22;7879;48.660;9.116;2022-10-22T05:37:02;11.50;99.90
15556;DHT22;7879;48.660;9.116;2022-10-22T05:39:29;11.60;99.90
15556;DHT22;7879;48.660;9.116;2022-10-22T05:41:56;11.50;99.90
15556;DHT22;7879;48.660;9.116;2022-10-22T05:44:22;11.50;99.90
15556;DHT22;7879;48.660;9.116;2022-10-22T05:46:49;11.50;99.90
15556;DHT22;7879;48.660;9.116;2022-10-22T05:49:15;11.50;99.90
15556;DHT22;7879;48.660;9.116;2022-10-22T05:51:42;11.50;99.90
15556;DHT22;7879;48.660;9.116;2022-10-22T05:54:16;11.50;99.90
15556;DHT22;7879;48.660;9.116;2022-10-22T05:56:44;11.50;99.90
15556;DHT22;7879;48.660;9.116;2022-10-22T05:59:10;11.50;99.90
15556;DHT22;7879;48.660;9.116;2022-10-22T06:01:38;11.50;99.90
15556;DHT22;7879;48.660;9.116;2022-10-22T06:04:08;11.50;99.90
15556;DHT22;7879;48.660;9.116;2022-10-22T06:06:46;11.40;99.90
15556;DHT22;7879;48.660;9.116;2022-10-22T06:09:30;11.50;99.90
15556;DHT22;7879;48.660;9.116;2022-10-22T06:11:58;11.60;99.90
15556;DHT22;7879;48.660;9.116;2022-10-22T06:14:25;11.60;99.90
15556;DHT22;7879;48.660;9.116;2022-10-22T06:16:52;11.60;99.90
15556;DHT22;7879;48.660;9.116;2022-10-22T06:19:20;11.60;99.90
15556;DHT22;7879;48.660;9.116;2022-10-22T06:21:48;11.60;99.90
15556;DHT22;7879;48.660;9.116;2022-10-22T06:24:15;11.60;99.90
15556;DHT22;7879;48.660;9.116;2022-10-22T06:26:42;11.60;99.90
15556;DHT22;7879;48.660;9.116;2022-10-22T06:29:09;11.60;99.90
15556;DHT22;7879;48.660;9.116;2022-10-22T06:31:36;11.60;99.90
15556;DHT22;7879;48.660;9.116;2022-10-22T06:34:04;11.60;99.90
15556;DHT22;7879;48.660;9.116;2022-10-22T06:36:31;11.60;99.90
15556;DHT22;7879;48.660;9.116;2022-10-22T06:38:58;11.60;99.90
15556;DHT22;7879;48.660;9.116;2022-10-22T06:41:25;11.60;99.90
15556;DHT22;7879;48.660;9.116;2022-10-22T06:43:55;11.60;99.90
15556;DHT22;7879;48.660;9.116;2022-10-22T06:46:23;11.70;99.90
15556;DHT22;7879;48.660;9.116;2022-10-22T06:48:56;11.60;99.90
15556;DHT22;7879;48.660;9.116;2022-10-22T06:51:24;11.60;99.90
15556;DHT22;7879;48.660;9.116;2022-10-22T06:53:52;11.70;99.90
15556;DHT22;7879;48.660;9.116;2022-10-22T06:56:20;11.60;99.90
15556;DHT22;7879;48.660;9.116;2022-10-22T06:58:48;11.60;99.90
15556;DHT22;7879;48.660;9.116;2022-10-22T07:01:17;11.70;99.90
15556;DHT22;7879;48.660;9.116;2022-10-22T07:03:45;11.70;99.90
15556;DHT22;7879;48.660;9.116;2022-10-22T07:06:13;11.80;99.90
15556;DHT22;7879;48.660;9.116;2022-10-22T07:08:40;11.80;99.90
15556;DHT22;7879;48.660;9.116;2022-10-22T07:11:13;11.80;99.90
15556;DHT22;7879;48.660;9.116;2022-10-22T07:13:40;11.80;99.90
15556;DHT22;7879;48.660;9.116;2022-10-22T07:16:08;11.80;99.90
15556;DHT22;7879;48.660;9.116;2022-10-22T07:18:35;11.90;99.90
15556;DHT22;7879;48.660;9.116;2022-10-22T07:21:03;11.90;99.90
15556;DHT22;7879;48.660;9.116;2022-10-22T07:23:30;11.90;99.90
15556;DHT22;7879;48.660;9.116;2022-10-22T07:25:57;11.90;99.90
15556;DHT22;7879;48.660;9.116;2022-10-22T07:28:24;12.00;99.90
15556;DHT22;7879;48.660;9.116;2022-10-22T07:30:51;12.00;99.90
15556;DHT22;7879;48.660;9.116;2022-10-22T07:33:18;12.00;99.90
15556;DHT22;7879;48.660;9.116;2022-10-22T07:35:44;12.00;99.90
15556;DHT22;7879;48.660;9.116;2022-10-22T07:38:11;12.00;99.90
15556;DHT22;7879;48.660;9.116;2022-10-22T07:40:37;12.00;99.90
15556;DHT22;7879;48.660;9.116;2022-10-22T07:43:05;12.00;99.90
15556;DHT22;7879;48.660;9.116;2022-10-22T07:45:31;12.00;99.90
15556;DHT22;7879;48.660;9.116;2022-10-22T07:47:59;12.00;99.90
15556;DHT22;7879;48.660;9.116;2022-10-22T07:50:27;12.10;99.90
15556;DHT22;7879;48.660;9.116;2022-10-22T07:52:54;12.10;99.90
15556;DHT22;7879;48.660;9.116;2022-10-22T07:55:24;12.20;99.90
15556;DHT22;7879;48.660;9.116;2022-10-22T07:57:51;12.20;99.90
15556;DHT22;7879;48.660;9.116;2022-10-22T08:00:18;12.20;99.90
15556;DHT22;7879;48.660;9.116;2022-10-22T08:02:50;12.20;99.90
15556;DHT22;7879;48.660;9.116;2022-10-22T08:05:17;12.20;99.90
15556;DHT22;7879;48.660;9.116;2022-10-22T08:07:44;12.30;99.90
15556;DHT22;7879;48.660;9.116;2022-10-22T08:10:11;12.30;99.90
15556;DHT22;7879;48.660;9.116;2022-10-22T08:12:39;12.30;99.90
15556;DHT22;7879;48.660;9.116;2022-10-22T08:15:06;12.30;99.90
15556;DHT22;7879;48.660;9.116;2022-10-22T08:17:33;12.40;99.90
15556;DHT22;7879;48.660;9.116;2022-10-22T08:20:00;12.40;99.90
15556;DHT22;7879;48.660;9.116;2022-10-22T08:22:27;12.40;99.90
15556;DHT22;7879;48.660;9.116;2022-10-22T08:24:53;12.50;99.90
15556;DHT22;7879;48.660;9.116;2022-10-22T08:27:20;12.50;99.90
15556;DHT22;7879;48.660;9.116;2022-10-22T08:29:47;12.60;99.90
15556;DHT22;7879;48.660;9.116;2022-10-22T08:32:14;12.70;99.90
15556;DHT22;7879;48.660;9.116;2022-10-22T08:34:41;12.70;99.90
15556;DHT22;7879;48.660;9.116;2022-10-22T08:37:07;12.80;99.90
15556;DHT22;7879;48.660;9.116;2022-10-22T08:39:36;12.90;99.90
15556;DHT22;7879;48.660;9.116;2022-10-22T08:42:28;13.00;99.90
15556;DHT22;7879;48.660;9.116;2022-10-22T08:45:23;13.10;99.90
15556;DHT22;7879;48.660;9.116;2022-10-22T08:48:33;13.10;99.90
15556;DHT22;7879;48.660;9.116;2022-10-22T08:51:04;13.30;99.90
15556;DHT22;7879;48.660;9.116;2022-10-22T08:56:08;13.60;99.90
15556;DHT22;7879;48.660;9.116;2022-10-22T09:01:18;13.80;99.90
15556;DHT22;7879;48.660;9.116;2022-10-22T09:03:56;14.00;99.90
15556;DHT22;7879;48.660;9.116;2022-10-22T09:06:28;14.10;99.90
15556;DHT22;7879;48.660;9.116;2022-10-22T09:08:58;14.30;99.90
15556;DHT22;7879;48.660;9.116;2022-10-22T09:11:35;14.30;99.90
15556;DHT22;7879;48.660;9.116;2022-10-22T09:14:03;14.50;99.90
15556;DHT22;7879;48.660;9.116;2022-10-22T09:19:25;14.70;99.90
15556;DHT22;7879;48.660;9.116;2022-10-22T09:25:10;15.10;99.90
15556;DHT22;7879;48.660;9.116;2022-10-22T09:27:39;15.10;99.90
15556;DHT22;7879;48.660;9.116;2022-10-22T09:30:10;15.30;99.90
15556;DHT22;7879;48.660;9.116;2022-10-22T09:32:40;15.40;99.90
15556;DHT22;7879;48.660;9.116;2022-10-22T09:35:10;15.60;99.90
15556;DHT22;7879;48.660;9.116;2022-10-22T09:37:50;15.60;99.90
15556;DHT22;7879;48.660;9.116;2022-10-22T09:40:17;15.70;99.90
15556;DHT22;7879;48.660;9.116;2022-10-22T09:42:45;16.00;99.90
15556;DHT22;7879;48.660;9.116;2022-10-22T09:45:19;16.30;99.90
15556;DHT22;7879;48.660;9.116;2022-10-22T09:47:46;16.60;99.90
15556;DHT22;7879;48.660;9.116;2022-10-22T09:50:49;16.70;99.90
15556;DHT22;7879;48.660;9.116;2022-10-22T09:53:31;16.90;99.90
15556;DHT22;7879;48.660;9.116;2022-10-22T09:56:31;17.00;99.90
15556;DHT22;7879;48.660;9.116;2022-10-22T09:58:55;17.30;99.90
15556;DHT22;7879;48.660;9.116;2022-10-22T10:01:28;17.40;99.90
15556;DHT22;7879;48.660;9.116;2022-10-22T10:04:02;17.70;99.90
15556;DHT22;7879;48.660;9.116;2022-10-22T10:06:35;17.90;99.90
15556;DHT22;7879;48.660;9.116;2022-10-22T10:09:10;18.10;99.90
15556;DHT22;7879;48.660;9.116;2022-10-22T10:17:04;18.40;99.90
15556;DHT22;7879;48.660;9.116;2022-10-22T10:19:43;18.70;99.90
15556;DHT22;7879;48.660;9.116;2022-10-22T10:25:39;18.90;99.90
15556;DHT22;7879;48.660;9.116;2022-10-22T10:28:19;18.90;99.90
15556;DHT22;7879;48.660;9.116;2022-10-22T10:39:33;19.00;99.90
15556;DHT22;7879;48.660;9.116;2022-10-22T10:45:09;19.30;99.90
15556;DHT22;7879;48.660;9.116;2022-10-22T10:50:47;19.60;99.90
15556;DHT22;7879;48.660;9.116;2022-10-22T11:06:51;19.90;99.90
15556;DHT22;7879;48.660;9.116;2022-10-22T11:10:26;20.00;99.90
15556;DHT22;7879;48.660;9.116;2022-10-22T11:12:34;20.30;99.90
15556;DHT22;7879;48.660;9.116;2022-10-22T11:15:26;20.30;99.90
15556;DHT22;7879;48.660;9.116;2022-10-22T11:18:00;20.20;99.90
15556;DHT22;7879;48.660;9.116;2022-10-22T11:23:21;19.70;99.90
15556;DHT22;7879;48.660;9.116;2022-10-22T11:25:50;19.50;99.90
15556;DHT22;7879;48.660;9.116;2022-10-22T11:28:42;19.50;99.90
15556;DHT22;7879;48.660;9.116;2022-10-22T11:31:14;19.60;99.90
15556;DHT22;7879;48.660;9.116;2022-10-22T11:36:36;20.10;99.90
15556;DHT22;7879;48.660;9.116;2022-10-22T11:39:04;20.30;99.90
15556;DHT22;7879;48.660;9.116;2022-10-22T11:41:32;20.10;99.90
15556;DHT22;7879;48.660;9.116;2022-10-22T11:44:14;20.10;99.90
15556;DHT22;7879;48.660;9.116;2022-10-22T11:47:14;20.00;99.90
15556;DHT22;7879;48.660;9.116;2022-10-22T11:52:46;19.80;99.90
15556;DHT22;7879;48.660;9.116;2022-10-22T11:55:44;19.80;99.90
15556;DHT22;7879;48.660;9.116;2022-10-22T12:08:57;19.40;99.90
15556;DHT22;7879;48.660;9.116;2022-10-22T12:11:35;19.30;99.90
15556;DHT22;7879;48.660;9.116;2022-10-22T12:14:26;19.20;99.90
15556;DHT22;7879;48.660;9.116;2022-10-22T12:17:01;19.10;99.90
15556;DHT22;7879;48.660;9.116;2022-10-22T12:19:53;19.20;99.90
15556;DHT22;7879;48.660;9.116;2022-10-22T12:22:35;19.20;99.90
15556;DHT22;7879;48.660;9.116;2022-10-22T12:25:23;19.10;99.90
15556;DHT22;7879;48.660;9.116;2022-10-22T12:27:58;19.00;99.90
15556;DHT22;7879;48.660;9.116;2022-10-22T12:30:35;18.90;99.90
15556;DHT22;7879;48.660;9.116;2022-10-22T12:33:05;18.90;99.90
15556;DHT22;7879;48.660;9.116;2022-10-22T12:35:43;19.00;99.90
15556;DHT22;7879;48.660;9.116;2022-10-22T12:38:19;19.10;99.90
15556;DHT22;7879;48.660;9.116;2022-10-22T12:40:47;19.10;99.90
15556;DHT22;7879;48.660;9.116;2022-10-22T12:43:24;19.20;99.90
15556;DHT22;7879;48.660;9.116;2022-10-22T12:45:51;19.10;99.90
15556;DHT22;7879;48.660;9.116;2022-10-22T12:48:28;19.20;99.90
15556;DHT22;7879;48.660;9.116;2022-10-22T12:51:01;19.20;99.90
15556;DHT22;7879;48.660;9.116;2022-10-22T12:53:32;19.10;99.90
15556;DHT22;7879;48.660;9.116;2022-10-22T12:56:04;19.00;99.90
15556;DHT22;7879;48.660;9.116;2022-10-22T12:58:43;19.00;99.90
15556;DHT22;7879;48.660;9.116;2022-10-22T13:01:12;19.10;99.90
15556;DHT22;7879;48.660;9.116;2022-10-22T13:03:46;19.10;99.90
15556;DHT22;7879;48.660;9.116;2022-10-22T13:09:02;19.20;99.90
15556;DHT22;7879;48.660;9.116;2022-10-22T13:11:54;19.10;99.90
15556;DHT22;7879;48.660;9.116;2022-10-22T13:14:43;19.10;99.90
15556;DHT22;7879;48.660;9.116;2022-10-22T13:17:14;19.10;99.90
15556;DHT22;7879;48.660;9.116;2022-10-22T13:24:52;19.10;99.90
15556;DHT22;7879;48.660;9.116;2022-10-22T13:27:19;19.20;99.90
15556;DHT22;7879;48.660;9.116;2022-10-22T13:29:46;19.20;99.90
15556;DHT22;7879;48.660;9.116;2022-10-22T13:32:29;19.10;99.90
15556;DHT22;7879;48.660;9.116;2022-10-22T13:34:58;19.10;99.90
15556;DHT22;7879;48.660;9.116;2022-10-22T13:37:26;19.00;99.90
15556;DHT22;7879;48.660;9.116;2022-10-22T13:39:54;19.10;99.90
15556;DHT22;7879;48.660;9.116;2022-10-22T13:42:21;19.10;99.90
15556;DHT22;7879;48.660;9.116;2022-10-22T13:44:47;19.10;99.90
15556;DHT22;7879;48.660;9.116;2022-10-22T13:47:28;19.20;99.90
15556;DHT22;7879;48.660;9.116;2022-10-22T13:49:57;19.20;99.90
15556;DHT22;7879;48.660;9.116;2022-10-22T13:52:33;19.20;99.90
15556;DHT22;7879;48.660;9.116;2022-10-22T13:55:00;19.20;99.90
15556;DHT22;7879;48.660;9.116;2022-10-22T13:57:27;19.20;99.90
15556;DHT22;7879;48.660;9.116;2022-10-22T13:59:53;19.10;99.90
15556;DHT22;7879;48.660;9.116;2022-10-22T14:02:20;19.00;99.90
15556;DHT22;7879;48.660;9.116;2022-10-22T14:04:50;19.00;99.90
15556;DHT22;7879;48.660;9.116;2022-10-22T14:07:17;19.00;99.90
15556;DHT22;7879;48.660;9.116;2022-10-22T14:09:44;19.00;99.90
15556;DHT22;7879;48.660;9.116;2022-10-22T14:12:17;19.00;99.90
15556;DHT22;7879;48.660;9.116;2022-10-22T14:14:44;19.00;99.90
15556;DHT22;7879;48.660;9.116;2022-10-22T14:17:13;19.00;99.90
15556;DHT22;7879;48.660;9.116;2022-10-22T14:19:45;18.90;99.90
15556;DHT22;7879;48.660;9.116;2022-10-22T14:22:17;18.90;99.90
15556;DHT22;7879;48.660;9.116;2022-10-22T14:24:45;18.90;99.90
15556;DHT22;7879;48.660;9.116;2022-10-22T14:27:13;18.90;99.90
15556;DHT22;7879;48.660;9.116;2022-10-22T14:29:40;18.90;99.90
15556;DHT22;7879;48.660;9.116;2022-10-22T14:32:15;18.90;99.90
15556;DHT22;7879;48.660;9.116;2022-10-22T14:34:42;18.90;99.90
15556;DHT22;7879;48.660;9.116;2022-10-22T14:37:16;18.80;99.90
15556;DHT22;7879;48.660;9.116;2022-10-22T14:39:44;18.80;99.90
15556;DHT22;7879;48.660;9.116;2022-10-22T14:42:12;18.80;99.90
15556;DHT22;7879;48.660;9.116;2022-10-22T14:44:39;18.70;99.90
15556;DHT22;7879;48.660;9.116;2022-10-22T14:47:06;18.70;99.90
15556;DHT22;7879;48.660;9.116;2022-10-22T14:49:33;18.70;99.90
15556;DHT22;7879;48.660;9.116;2022-10-22T14:51:59;18.60;99.90
15556;DHT22;7879;48.660;9.116;2022-10-22T14:54:26;18.60;99.90
15556;DHT22;7879;48.660;9.116;2022-10-22T14:56:53;18.60;99.90
15556;DHT22;7879;48.660;9.116;2022-10-22T14:59:19;18.50;99.90
15556;DHT22;7879;48.660;9.116;2022-10-22T15:01:46;18.50;99.90
15556;DHT22;7879;48.660;9.116;2022-10-22T15:04:13;18.50;99.90
15556;DHT22;7879;48.660;9.116;2022-10-22T15:06:39;18.40;99.90
15556;DHT22;7879;48.660;9.116;2022-10-22T15:09:06;18.40;99.90
15556;DHT22;7879;48.660;9.116;2022-10-22T15:11:33;18.30;99.90
15556;DHT22;7879;48.660;9.116;2022-10-22T15:13:59;18.30;99.90
15556;DHT22;7879;48.660;9.116;2022-10-22T15:16:26;18.20;99.90
15556;DHT22;7879;48.660;9.116;2022-10-22T15:18:52;18.20;99.90
15556;DHT22;7879;48.660;9.116;2022-10-22T15:21:20;18.20;99.90
15556;DHT22;7879;48.660;9.116;2022-10-22T15:23:48;18.10;99.90
15556;DHT22;7879;48.660;9.116;2022-10-22T15:26:15;18.10;99.90
15556;DHT22;7879;48.660;9.116;2022-10-22T15:28:42;18.00;99.90
15556;DHT22;7879;48.660;9.116;2022-10-22T15:31:12;18.00;99.90
15556;DHT22;7879;48.660;9.116;2022-10-22T15:33:42;17.90;99.90
15556;DHT22;7879;48.660;9.116;2022-10-22T15:36:14;17.90;99.90
15556;DHT22;7879;48.660;9.116;2022-10-22T15:38:41;17.80;99.90
15556;DHT22;7879;48.660;9.116;2022-10-22T15:41:08;17.80;99.90
15556;DHT22;7879;48.660;9.116;2022-10-22T15:43:41;17.70;99.90
15556;DHT22;7879;48.660;9.116;2022-10-22T15:46:13;17.60;99.90
15556;DHT22;7879;48.660;9.116;2022-10-22T15:48:40;17.50;99.90
15556;DHT22;7879;48.660;9.116;2022-10-22T15:51:11;17.50;99.90
15556;DHT22;7879;48.660;9.116;2022-10-22T15:53:39;17.40;99.90
15556;DHT22;7879;48.660;9.116;2022-10-22T15:56:09;17.40;99.90
15556;DHT22;7879;48.660;9.116;2022-10-22T15:58:37;17.20;99.90
15556;DHT22;7879;48.660;9.116;2022-10-22T16:01:05;17.20;99.90
15556;DHT22;7879;48.660;9.116;2022-10-22T16:03:33;17.10;99.90
15556;DHT22;7879;48.660;9.116;2022-10-22T16:06:00;16.90;99.90
15556;DHT22;7879;48.660;9.116;2022-10-22T16:08:27;16.80;99.90
15556;DHT22;7879;48.660;9.116;2022-10-22T16:10:54;16.70;99.90
15556;DHT22;7879;48.660;9.116;2022-10-22T16:13:21;16.60;99.90
15556;DHT22;7879;48.660;9.116;2022-10-22T16:15:50;16.60;99.90
15556;DHT22;7879;48.660;9.116;2022-10-22T16:18:17;16.60;99.90
15556;DHT22;7879;48.660;9.116;2022-10-22T16:20:44;16.60;99.90
15556;DHT22;7879;48.660;9.116;2022-10-22T16:23:11;16.50;99.90
15556;DHT22;7879;48.660;9.116;2022-10-22T16:25:41;16.40;99.90
15556;DHT22;7879;48.660;9.116;2022-10-22T16:28:09;16.30;99.90
15556;DHT22;7879;48.660;9.116;2022-10-22T16:30:37;16.30;99.90
15556;DHT22;7879;48.660;9.116;2022-10-22T16:33:05;16.20;99.90
15556;DHT22;7879;48.660;9.116;2022-10-22T16:35:32;16.20;99.90
15556;DHT22;7879;48.660;9.116;2022-10-22T16:37:59;16.00;99.90
15556;DHT22;7879;48.660;9.116;2022-10-22T16:40:26;15.90;99.90
15556;DHT22;7879;48.660;9.116;2022-10-22T16:42:54;15.90;99.90
15556;DHT22;7879;48.660;9.116;2022-10-22T16:45:21;15.80;99.90
15556;DHT22;7879;48.660;9.116;2022-10-22T16:47:47;15.80;99.90
15556;DHT22;7879;48.660;9.116;2022-10-22T16:50:15;15.60;99.90
15556;DHT22;7879;48.660;9.116;2022-10-22T16:52:41;15.50;99.90
15556;DHT22;7879;48.660;9.116;2022-10-22T16:55:08;15.40;99.90
15556;DHT22;7879;48.660;9.116;2022-10-22T16:57:35;15.30;99.90
15556;DHT22;7879;48.660;9.116;2022-10-22T17:00:04;15.20;99.90
15556;DHT22;7879;48.660;9.116;2022-10-22T17:02:31;15.20;99.90
15556;DHT22;7879;48.660;9.116;2022-10-22T17:04:57;15.20;99.90
15556;DHT22;7879;48.660;9.116;2022-10-22T17:07:24;15.10;99.90
15556;DHT22;7879;48.660;9.116;2022-10-22T17:09:50;15.10;99.90
15556;DHT22;7879;48.660;9.116;2022-10-22T17:12:17;15.00;99.90
15556;DHT22;7879;48.660;9.116;2022-10-22T17:14:44;15.00;99.90
15556;DHT22;7879;48.660;9.116;2022-10-22T17:17:11;15.00;99.90
15556;DHT22;7879;48.660;9.116;2022-10-22T17:19:53;14.90;99.90
15556;DHT22;7879;48.660;9.116;2022-10-22T17:22:27;14.80;99.90
15556;DHT22;7879;48.660;9.116;2022-10-22T17:25:24;14.80;99.90
15556;DHT22;7879;48.660;9.116;2022-10-22T17:27:57;14.70;99.90
15556;DHT22;7879;48.660;9.116;2022-10-22T17:30:24;14.60;99.90
15556;DHT22;7879;48.660;9.116;2022-10-22T17:32:53;14.60;99.90
15556;DHT22;7879;48.660;9.116;2022-10-22T17:35:20;14.50;99.90
15556;DHT22;7879;48.660;9.116;2022-10-22T17:37:46;14.50;99.90
15556;DHT22;7879;48.660;9.116;2022-10-22T17:40:14;14.30;99.90
15556;DHT22;7879;48.660;9.116;2022-10-22T17:42:41;14.30;99.90